createdAt,value
2022-08-04T00:00:07.120Z,51.21
2022-08-04T00:01:18.444Z,51.23
2022-08-04T00:02:27.345Z,51.21
2022-08-04T00:03:39.818Z,51.55
2022-08-04T00:04:49.324Z,52.04
2022-08-04T00:06:03.091Z,51.55
2022-08-04T00:07:45.007Z,51.02
2022-08-04T00:08:57.579Z,51.56
2022-08-04T00:10:02.359Z,51.16
2022-08-04T00:11:04.692Z,51.39
2022-08-04T00:12:08.533Z,52.00
2022-08-04T00:13:11.579Z,51.15
2022-08-04T00:14:17.086Z,51.21
2022-08-04T00:15:20.133Z,51.44
2022-08-04T00:16:24.418Z,51.91
2022-08-04T00:17:45.272Z,51.65
2022-08-04T00:18:54.604Z,52.03
2022-08-04T00:20:01.079Z,51.86
2022-08-04T00:21:06.807Z,52.19
2022-08-04T00:22:11.056Z,52.13
2022-08-04T00:23:13.926Z,52.23
2022-08-04T00:24:16.450Z,52.26
2022-08-04T00:25:18.314Z,52.09
2022-08-04T00:26:21.234Z,52.51
2022-08-04T00:27:24.078Z,51.66
2022-08-04T00:28:27.150Z,51.33
2022-08-04T00:29:28.981Z,51.04
2022-08-04T00:30:31.069Z,52.08
2022-08-04T00:31:54.728Z,51.86
2022-08-04T00:32:57.208Z,50.88
2022-08-04T00:33:59.212Z,50.84
2022-08-04T00:35:01.895Z,51.06
2022-08-04T00:36:03.794Z,50.96
2022-08-04T00:37:07.133Z,51.09
2022-08-04T00:38:08.911Z,50.39
2022-08-04T00:39:16.828Z,50.78
2022-08-04T00:40:48.063Z,50.35
2022-08-04T00:42:08.272Z,51.59
2022-08-04T00:43:30.090Z,51.50
2022-08-04T00:44:52.994Z,51.45
2022-08-04T00:46:28.926Z,50.60
2022-08-04T00:47:36.663Z,50.20
2022-08-04T00:49:02.953Z,49.87
2022-08-04T00:50:19.227Z,50.52
2022-08-04T00:51:41.567Z,50.74
2022-08-04T00:53:24.313Z,51.22
2022-08-04T00:54:46.410Z,51.93
2022-08-04T00:55:51.177Z,51.48
2022-08-04T00:57:30.124Z,51.91
2022-08-04T00:58:59.779Z,52.26
2022-08-04T01:00:11.937Z,52.73
2022-08-04T01:01:29.934Z,52.97
2022-08-04T01:02:56.227Z,52.93
2022-08-04T01:04:10.678Z,52.33
2022-08-04T01:05:25.080Z,52.21
2022-08-04T01:06:32.479Z,52.72
2022-08-04T01:07:43.129Z,53.07
2022-08-04T01:08:53.603Z,52.66
2022-08-04T01:10:15.558Z,51.70
2022-08-04T01:11:56.518Z,52.14
2022-08-04T01:13:34.087Z,52.13
2022-08-04T01:14:56.008Z,52.78
2022-08-04T01:16:05.355Z,52.93
2022-08-04T01:17:33.611Z,52.57
2022-08-04T01:18:50.409Z,52.20
2022-08-04T01:20:08.838Z,53.91
2022-08-04T01:21:16.531Z,53.63
2022-08-04T01:22:33.169Z,54.40
2022-08-04T01:23:55.968Z,53.69
2022-08-04T01:25:35.728Z,53.80
2022-08-04T01:26:53.833Z,53.29
2022-08-04T01:28:27.101Z,54.11
2022-08-04T01:29:46.488Z,54.59
2022-08-04T01:30:49.938Z,54.04
2022-08-04T01:32:12.458Z,54.31
2022-08-04T01:33:16.997Z,54.94
2022-08-04T01:34:22.179Z,55.20
2022-08-04T01:35:48.017Z,55.06
2022-08-04T01:37:00.851Z,55.05
2022-08-04T01:38:32.455Z,54.78
2022-08-04T01:39:49.913Z,55.15
2022-08-04T01:40:59.480Z,55.23
2022-08-04T01:42:04.426Z,54.42
2022-08-04T01:43:06.225Z,55.08
2022-08-04T01:44:10.115Z,55.33
2022-08-04T01:45:13.419Z,54.65
2022-08-04T01:46:17.383Z,54.90
2022-08-04T01:47:22.053Z,54.55
2022-08-04T01:48:26.831Z,53.96
2022-08-04T01:49:40.681Z,53.84
2022-08-04T01:50:43.709Z,54.16
2022-08-04T01:51:46.523Z,53.99
2022-08-04T01:52:51.103Z,53.46
2022-08-04T01:53:53.143Z,53.28
2022-08-04T01:54:56.066Z,53.49
2022-08-04T01:55:58.556Z,52.50
2022-08-04T01:57:36.823Z,52.76
2022-08-04T01:58:29.877Z,53.25
2022-08-04T01:59:34.348Z,53.64
2022-08-04T02:00:40.439Z,54.28
2022-08-04T02:01:42.299Z,54.65
2022-08-04T02:02:45.762Z,54.49
2022-08-04T02:04:20.160Z,54.60
2022-08-04T02:05:16.055Z,54.31
2022-08-04T02:06:17.707Z,54.81
2022-08-04T02:07:40.509Z,54.21
2022-08-04T02:08:57.216Z,54.64
2022-08-04T02:10:27.614Z,54.89
2022-08-04T02:11:29.772Z,55.10
2022-08-04T02:12:37.317Z,56.37
2022-08-04T02:13:41.752Z,57.03
2022-08-04T02:15:22.046Z,57.39
2022-08-04T02:16:30.382Z,57.39
2022-08-04T02:17:51.121Z,57.62
2022-08-04T02:19:30.472Z,57.38
2022-08-04T02:20:44.101Z,57.46
2022-08-04T02:21:51.893Z,57.12
2022-08-04T02:22:58.203Z,57.28
2022-08-04T02:24:07.598Z,56.93
2022-08-04T02:25:11.532Z,57.25
2022-08-04T02:26:22.926Z,57.19
2022-08-04T02:28:00.622Z,58.54
2022-08-04T02:29:04.408Z,57.71
2022-08-04T02:30:06.905Z,57.25
2022-08-04T02:31:19.527Z,57.66
2022-08-04T02:32:27.517Z,58.72
2022-08-04T02:33:38.712Z,58.27
2022-08-04T02:35:07.819Z,57.05
2022-08-04T02:36:27.862Z,56.03
2022-08-04T02:37:32.436Z,57.33
2022-08-04T02:38:52.933Z,58.98
2022-08-04T02:39:58.000Z,59.35
2022-08-04T02:41:01.959Z,58.90
2022-08-04T02:42:06.532Z,59.02
2022-08-04T02:43:13.147Z,57.62
2022-08-04T02:44:21.449Z,57.88
2022-08-04T02:45:23.289Z,58.78
2022-08-04T02:46:25.170Z,58.38
2022-08-04T02:48:28.746Z,57.73
2022-08-04T02:48:53.270Z,58.13
2022-08-04T02:49:57.375Z,57.93
2022-08-04T02:51:00.634Z,58.90
2022-08-04T02:52:02.688Z,58.26
2022-08-04T02:53:09.882Z,58.35
2022-08-04T02:54:11.885Z,58.75
2022-08-04T02:55:15.283Z,58.49
2022-08-04T02:56:20.386Z,57.87
2022-08-04T02:57:26.983Z,57.63
2022-08-04T02:58:34.461Z,58.56
2022-08-04T02:59:57.484Z,58.22
2022-08-04T03:00:59.366Z,57.87
2022-08-04T03:02:01.109Z,57.47
2022-08-04T03:03:24.561Z,57.88
2022-08-04T03:04:44.449Z,58.59
2022-08-04T03:06:01.634Z,58.23
2022-08-04T03:07:54.298Z,57.83
2022-08-04T03:09:18.484Z,57.44
2022-08-04T03:10:41.670Z,58.38
2022-08-04T03:12:07.683Z,57.50
2022-08-04T03:13:38.654Z,57.72
2022-08-04T03:15:29.419Z,58.55
2022-08-04T03:17:22.270Z,58.00
2022-08-04T03:19:09.640Z,57.77
2022-08-04T03:20:48.964Z,57.89
2022-08-04T03:22:24.092Z,60.17
2022-08-04T03:23:44.725Z,59.56
2022-08-04T03:25:04.873Z,60.42
2022-08-04T03:26:21.481Z,59.01
2022-08-04T03:27:26.113Z,58.41
2022-08-04T03:29:00.699Z,58.32
2022-08-04T03:30:10.927Z,58.83
2022-08-04T03:31:51.061Z,57.81
2022-08-04T03:33:08.012Z,56.17
2022-08-04T03:34:31.375Z,55.60
2022-08-04T03:36:00.707Z,55.27
2022-08-04T03:37:32.890Z,55.20
2022-08-04T03:38:54.988Z,55.90
2022-08-04T03:40:30.007Z,57.37
2022-08-04T03:41:51.551Z,57.38
2022-08-04T03:42:59.132Z,57.26
2022-08-04T03:44:38.525Z,56.25
2022-08-04T03:45:42.945Z,55.49
2022-08-04T03:46:47.533Z,55.00
2022-08-04T03:48:12.243Z,55.24
2022-08-04T03:49:55.435Z,56.07
2022-08-04T03:51:36.976Z,55.53
2022-08-04T03:53:10.084Z,57.12
2022-08-04T03:54:36.236Z,55.51
2022-08-04T03:56:11.383Z,55.89
2022-08-04T03:57:40.359Z,57.92
2022-08-04T03:58:47.980Z,56.03
2022-08-04T04:00:02.742Z,55.96
2022-08-04T04:01:23.335Z,55.03
2022-08-04T04:02:43.264Z,53.01
2022-08-04T04:03:44.958Z,52.73
2022-08-04T04:04:49.803Z,54.33
2022-08-04T04:06:15.237Z,54.52
2022-08-04T04:07:35.677Z,54.13
2022-08-04T04:09:13.557Z,53.40
2022-08-04T04:10:47.021Z,53.94
2022-08-04T04:12:22.039Z,53.08
2022-08-04T04:13:52.703Z,51.36
2022-08-04T04:15:15.980Z,49.72
2022-08-04T04:16:59.318Z,48.77
2022-08-04T04:18:21.233Z,48.31
2022-08-04T04:19:34.950Z,48.74
2022-08-04T04:20:55.018Z,49.61
2022-08-04T04:22:15.334Z,49.40
2022-08-04T04:23:50.911Z,48.72
2022-08-04T04:24:55.681Z,48.00
2022-08-04T04:26:18.959Z,47.78
2022-08-04T04:27:35.173Z,48.43
2022-08-04T04:29:13.802Z,47.90
2022-08-04T04:30:42.029Z,47.78
2022-08-04T04:32:28.702Z,47.51
2022-08-04T04:33:56.245Z,48.27
2022-08-04T04:35:06.979Z,47.42
2022-08-04T04:36:17.052Z,47.45
2022-08-04T04:37:48.877Z,47.10
2022-08-04T04:39:18.801Z,46.41
2022-08-04T04:40:28.878Z,45.17
2022-08-04T04:42:23.111Z,45.39
2022-08-04T04:43:52.078Z,45.68
2022-08-04T04:44:49.017Z,44.43
2022-08-04T04:45:59.891Z,45.36
2022-08-04T04:47:16.045Z,45.19
2022-08-04T04:48:17.772Z,43.79
2022-08-04T04:50:00.778Z,43.46
2022-08-04T04:51:24.208Z,43.86
2022-08-04T04:52:54.212Z,43.50
2022-08-04T04:54:06.514Z,42.11
2022-08-04T04:55:16.188Z,42.66
2022-08-04T04:56:35.915Z,42.07
2022-08-04T04:57:53.895Z,41.08
2022-08-04T04:58:58.733Z,39.98
2022-08-04T05:00:09.615Z,39.96
2022-08-04T05:01:31.984Z,39.33
2022-08-04T05:02:52.250Z,39.10
2022-08-04T05:04:12.317Z,39.02
2022-08-04T05:05:55.624Z,39.40
2022-08-04T05:07:22.145Z,39.64
2022-08-04T05:08:43.821Z,38.96
2022-08-04T05:10:18.164Z,39.00
2022-08-04T05:11:41.439Z,37.98
2022-08-04T05:14:34.683Z,37.07
2022-08-04T05:14:50.227Z,36.74
2022-08-04T05:15:56.541Z,36.62
2022-08-04T05:17:12.637Z,37.57
2022-08-04T05:18:24.762Z,37.48
2022-08-04T05:19:26.442Z,35.14
2022-08-04T05:20:35.836Z,35.45
2022-08-04T05:21:48.326Z,35.39
2022-08-04T05:23:02.207Z,34.44
2022-08-04T05:24:08.389Z,33.91
2022-08-04T05:25:24.087Z,34.23
2022-08-04T05:26:31.920Z,34.02
2022-08-04T05:27:51.620Z,35.24
2022-08-04T05:28:57.673Z,34.00
2022-08-04T05:30:04.249Z,33.44
2022-08-04T05:31:12.212Z,34.24
2022-08-04T05:32:17.030Z,32.23
2022-08-04T05:33:32.891Z,34.00
2022-08-04T05:34:52.629Z,33.22
2022-08-04T05:36:20.647Z,33.03
2022-08-04T05:37:24.098Z,32.10
2022-08-04T05:38:35.743Z,32.09
2022-08-04T05:39:43.078Z,32.44
2022-08-04T05:40:50.405Z,32.77
2022-08-04T05:41:55.605Z,31.76
2022-08-04T05:43:01.789Z,31.53
2022-08-04T05:44:04.398Z,31.35
2022-08-04T05:45:09.454Z,31.44
2022-08-04T05:46:13.818Z,31.57
2022-08-04T05:47:16.675Z,31.92
2022-08-04T05:48:19.084Z,31.48
2022-08-04T05:49:25.561Z,30.35
2022-08-04T05:50:27.693Z,30.55
2022-08-04T05:51:35.219Z,30.22
2022-08-04T05:52:38.119Z,30.36
2022-08-04T05:53:44.425Z,30.50
2022-08-04T05:54:48.245Z,29.84
2022-08-04T05:55:58.888Z,29.46
2022-08-04T05:57:04.673Z,29.56
2022-08-04T05:58:07.156Z,29.45
2022-08-04T05:59:11.492Z,28.53
2022-08-04T06:00:38.934Z,28.61
2022-08-04T06:01:56.545Z,28.53
2022-08-04T06:03:00.431Z,28.88
2022-08-04T06:04:11.107Z,28.52
2022-08-04T06:05:15.303Z,29.14
2022-08-04T06:06:19.246Z,28.55
2022-08-04T06:07:21.465Z,28.73
2022-08-04T06:08:24.327Z,28.56
2022-08-04T06:09:26.340Z,28.88
2022-08-04T06:10:29.977Z,29.16
2022-08-04T06:12:03.161Z,28.69
2022-08-04T06:13:01.867Z,28.85
2022-08-04T06:14:07.747Z,29.56
2022-08-04T06:15:13.533Z,29.36
2022-08-04T06:16:26.724Z,30.19
2022-08-04T06:19:56.903Z,31.14
2022-08-04T06:20:00.623Z,29.70
2022-08-04T06:20:37.385Z,30.35
2022-08-04T06:21:43.120Z,31.11
2022-08-04T06:22:47.326Z,30.77
2022-08-04T06:23:53.177Z,31.03
2022-08-04T06:25:02.974Z,30.42
2022-08-04T06:26:06.396Z,30.73
2022-08-04T06:27:08.879Z,30.51
2022-08-04T06:28:11.885Z,29.98
2022-08-04T06:29:24.842Z,29.54
2022-08-04T06:30:28.519Z,29.34
2022-08-04T06:32:31.616Z,29.90
2022-08-04T06:33:24.000Z,28.98
2022-08-04T06:34:27.883Z,29.14
2022-08-04T06:35:31.450Z,28.36
2022-08-04T06:36:36.959Z,28.61
2022-08-04T06:37:42.482Z,28.64
2022-08-04T06:38:46.281Z,29.29
2022-08-04T06:39:49.560Z,27.88
2022-08-04T06:40:55.311Z,27.73
2022-08-04T06:42:22.047Z,28.88
2022-08-04T06:43:21.831Z,27.20
2022-08-04T06:44:26.408Z,27.11
2022-08-04T06:45:29.650Z,27.20
2022-08-04T06:46:32.498Z,27.77
2022-08-04T06:47:37.498Z,26.33
2022-08-04T06:48:39.502Z,26.28
2022-08-04T06:49:43.963Z,26.83
2022-08-04T06:51:26.621Z,26.03
2022-08-04T06:52:27.547Z,25.84
2022-08-04T06:53:29.914Z,25.57
2022-08-04T06:54:31.727Z,25.98
2022-08-04T06:55:34.614Z,26.34
2022-08-04T06:56:39.578Z,25.71
2022-08-04T06:57:42.542Z,24.90
2022-08-04T06:58:53.369Z,24.27
2022-08-04T07:00:12.001Z,25.44
2022-08-04T07:01:15.395Z,25.09
2022-08-04T07:02:20.713Z,25.40
2022-08-04T07:03:22.921Z,25.55
2022-08-04T07:04:24.895Z,27.08
2022-08-04T07:05:26.982Z,25.17
2022-08-04T07:06:28.842Z,25.52
2022-08-04T07:07:36.787Z,24.43
2022-08-04T07:08:40.363Z,25.19
2022-08-04T07:09:42.459Z,24.83
2022-08-04T07:10:45.554Z,24.74
2022-08-04T07:11:49.355Z,24.37
2022-08-04T07:12:53.026Z,23.90
2022-08-04T07:13:57.310Z,24.21
2022-08-04T07:14:59.608Z,22.99
2022-08-04T07:16:02.040Z,23.69
2022-08-04T07:17:09.339Z,23.41
2022-08-04T07:18:11.172Z,23.26
2022-08-04T07:19:17.136Z,24.09
2022-08-04T07:20:34.615Z,24.19
2022-08-04T07:21:37.968Z,24.35
2022-08-04T07:22:43.158Z,23.38
2022-08-04T07:23:45.613Z,23.20
2022-08-04T07:24:47.337Z,23.58
2022-08-04T07:26:12.769Z,22.61
2022-08-04T07:27:17.399Z,23.61
2022-08-04T07:28:40.044Z,23.83
2022-08-04T07:29:41.984Z,23.22
2022-08-04T07:30:45.392Z,23.88
2022-08-04T07:31:48.506Z,22.92
2022-08-04T07:32:50.985Z,23.67
2022-08-04T07:34:17.414Z,22.62
2022-08-04T07:35:34.510Z,24.07
2022-08-04T07:36:50.535Z,24.04
2022-08-04T07:37:53.028Z,22.57
2022-08-04T07:38:55.309Z,22.60
2022-08-04T07:39:57.546Z,21.96
2022-08-04T07:41:00.745Z,22.91
2022-08-04T07:42:03.735Z,22.30
2022-08-04T07:43:05.892Z,20.70
2022-08-04T07:44:09.253Z,21.73
2022-08-04T07:45:11.411Z,21.57
2022-08-04T07:46:13.548Z,22.26
2022-08-04T07:47:15.658Z,22.30
2022-08-04T07:48:19.019Z,22.39
2022-08-04T07:49:56.011Z,21.16
2022-08-04T07:50:44.662Z,21.82
2022-08-04T07:51:46.792Z,22.57
2022-08-04T07:53:09.033Z,21.76
2022-08-04T07:54:11.384Z,21.14
2022-08-04T07:55:13.839Z,21.17
2022-08-04T07:56:16.766Z,22.85
2022-08-04T07:57:40.487Z,23.67
2022-08-04T07:58:42.817Z,23.13
2022-08-04T07:59:49.630Z,22.43
2022-08-04T08:00:52.579Z,21.80
2022-08-04T08:01:55.762Z,21.06
2022-08-04T08:02:58.054Z,22.24
2022-08-04T08:04:01.225Z,22.15
2022-08-04T08:05:03.398Z,21.79
2022-08-04T08:06:17.516Z,22.79
2022-08-04T08:07:27.570Z,21.98
2022-08-04T08:08:29.754Z,23.01
2022-08-04T08:09:34.412Z,22.03
2022-08-04T08:10:36.228Z,22.95
2022-08-04T08:12:36.639Z,20.94
2022-08-04T08:13:00.632Z,21.00
2022-08-04T08:14:02.685Z,21.49
2022-08-04T08:15:06.946Z,22.03
2022-08-04T08:16:12.807Z,20.67
2022-08-04T08:17:14.648Z,20.85
2022-08-04T08:18:16.388Z,19.91
2022-08-04T08:19:18.248Z,19.67
2022-08-04T08:20:28.864Z,20.67
2022-08-04T08:21:32.223Z,19.50
2022-08-04T08:22:34.363Z,21.27
2022-08-04T08:23:37.053Z,21.36
2022-08-04T08:24:38.911Z,21.90
2022-08-04T08:25:41.000Z,22.12
2022-08-04T08:26:43.316Z,20.36
2022-08-04T08:27:55.672Z,21.01
2022-08-04T08:28:58.559Z,21.30
2022-08-04T08:30:00.860Z,21.26
2022-08-04T08:31:02.661Z,18.68
2022-08-04T08:32:13.350Z,18.58
2022-08-04T08:33:16.737Z,18.19
2022-08-04T08:34:27.527Z,19.56
2022-08-04T08:35:47.395Z,19.49
2022-08-04T08:37:30.992Z,19.09
2022-08-04T08:38:49.785Z,19.74
2022-08-04T08:39:54.375Z,18.56
2022-08-04T08:41:25.203Z,19.49
2022-08-04T08:42:35.921Z,19.44
2022-08-04T08:44:05.122Z,19.32
2022-08-04T08:45:17.957Z,18.31
2022-08-04T08:46:48.997Z,20.17
2022-08-04T08:48:19.280Z,19.59
2022-08-04T08:50:02.318Z,21.02
2022-08-04T08:51:25.057Z,19.66
2022-08-04T08:53:00.731Z,18.97
2022-08-04T08:54:12.587Z,21.61
2022-08-04T08:55:51.343Z,19.25
2022-08-04T08:57:11.583Z,20.42
2022-08-04T08:58:32.624Z,18.83
2022-08-04T08:59:49.669Z,18.59
2022-08-04T09:01:23.820Z,17.83
2022-08-04T09:03:05.379Z,17.87
2022-08-04T09:04:23.705Z,18.64
2022-08-04T09:05:52.289Z,18.00
2022-08-04T09:07:18.832Z,17.62
2022-08-04T09:08:33.810Z,18.41
2022-08-04T09:09:48.290Z,16.67
2022-08-04T09:11:12.410Z,17.14
2022-08-04T09:12:40.466Z,17.40
2022-08-04T09:13:52.427Z,18.30
2022-08-04T09:15:26.237Z,17.35
2022-08-04T09:16:38.897Z,17.60
2022-08-04T09:17:47.928Z,17.31
2022-08-04T09:19:37.507Z,17.08
2022-08-04T09:20:54.318Z,18.67
2022-08-04T09:22:18.381Z,17.73
2022-08-04T09:23:38.387Z,17.16
2022-08-04T09:24:48.633Z,16.48
2022-08-04T09:26:02.422Z,16.41
2022-08-04T09:27:14.662Z,17.45
2022-08-04T09:28:52.073Z,17.22
2022-08-04T09:30:09.327Z,15.62
2022-08-04T09:31:20.169Z,15.30
2022-08-04T09:32:41.475Z,15.46
2022-08-04T09:34:11.846Z,15.64
2022-08-04T09:35:25.643Z,15.47
2022-08-04T09:36:37.439Z,15.74
2022-08-04T09:37:52.503Z,15.51
2022-08-04T09:39:33.448Z,15.62
2022-08-04T09:41:04.681Z,16.97
2022-08-04T09:42:25.775Z,14.93
2022-08-04T09:44:48.927Z,14.40
2022-08-04T09:45:55.098Z,14.54
2022-08-04T09:47:39.456Z,15.48
2022-08-04T09:49:04.444Z,14.11
2022-08-04T09:50:30.009Z,16.75
2022-08-04T09:52:06.407Z,14.75
2022-08-04T09:53:17.259Z,15.43
2022-08-04T09:54:55.928Z,16.63
2022-08-04T09:56:06.924Z,16.76
2022-08-04T09:57:41.647Z,15.89
2022-08-04T09:59:09.832Z,16.08
2022-08-04T10:00:16.634Z,16.06
2022-08-04T10:01:23.663Z,15.78
2022-08-04T10:02:31.173Z,14.91
2022-08-04T10:03:36.139Z,15.94
2022-08-04T10:04:40.476Z,15.42
2022-08-04T10:06:08.643Z,16.52
2022-08-04T10:07:59.559Z,16.17
2022-08-04T10:09:19.396Z,15.81
2022-08-04T10:10:33.332Z,15.46
2022-08-04T10:11:56.184Z,17.86
2022-08-04T10:13:06.217Z,14.94
2022-08-04T10:14:23.042Z,16.18
2022-08-04T10:15:40.247Z,14.56
2022-08-04T10:16:58.793Z,16.52
2022-08-04T10:18:25.350Z,15.47
2022-08-04T10:19:38.819Z,15.95
2022-08-04T10:21:09.162Z,14.46
2022-08-04T10:22:28.596Z,14.07
2022-08-04T10:24:03.267Z,17.74
2022-08-04T10:26:06.993Z,14.83
2022-08-04T10:27:22.228Z,15.85
2022-08-04T10:28:25.176Z,16.29
2022-08-04T10:29:39.094Z,17.38
2022-08-04T10:30:47.698Z,16.57
2022-08-04T10:32:10.093Z,17.92
2022-08-04T10:33:20.806Z,14.90
2022-08-04T10:34:28.008Z,14.46
2022-08-04T10:35:35.701Z,15.61
2022-08-04T10:36:54.317Z,15.57
2022-08-04T10:38:17.965Z,13.94
2022-08-04T10:39:43.724Z,14.50
2022-08-04T10:40:49.957Z,14.70
2022-08-04T10:42:16.097Z,14.21
2022-08-04T10:43:35.863Z,15.37
2022-08-04T10:44:57.138Z,13.77
2022-08-04T10:46:10.421Z,13.72
2022-08-04T10:47:22.603Z,14.53
2022-08-04T10:48:45.739Z,15.65
2022-08-04T10:49:54.527Z,15.36
2022-08-04T10:51:15.803Z,15.12
2022-08-04T10:52:42.653Z,15.39
2022-08-04T10:53:47.154Z,14.35
2022-08-04T10:55:13.269Z,13.53
2022-08-04T10:56:33.113Z,13.42
2022-08-04T10:57:40.955Z,12.58
2022-08-04T10:58:49.807Z,14.51
2022-08-04T11:00:05.963Z,14.28
2022-08-04T11:02:00.632Z,14.07
2022-08-04T11:02:38.125Z,13.83
2022-08-04T11:03:51.934Z,16.93
2022-08-04T11:05:11.572Z,13.42
2022-08-04T11:06:14.363Z,13.49
2022-08-04T11:07:17.920Z,15.11
2022-08-04T11:08:39.017Z,14.68
2022-08-04T11:09:44.149Z,13.65
2022-08-04T11:10:51.845Z,13.52
2022-08-04T11:12:02.122Z,13.27
2022-08-04T11:13:06.605Z,12.81
2022-08-04T11:14:29.489Z,13.00
2022-08-04T11:15:40.910Z,13.71
2022-08-04T11:17:05.236Z,13.22
2022-08-04T11:18:17.043Z,13.33
2022-08-04T11:19:47.226Z,13.36
2022-08-04T11:21:01.128Z,13.04
2022-08-04T11:22:17.622Z,12.94
2022-08-04T11:23:24.429Z,14.23
2022-08-04T11:24:32.018Z,13.90
2022-08-04T11:25:41.957Z,13.04
2022-08-04T11:27:07.423Z,13.08
2022-08-04T11:28:22.732Z,12.48
2022-08-04T11:29:45.790Z,13.50
2022-08-04T11:31:09.596Z,14.38
2022-08-04T11:32:20.147Z,13.72
2022-08-04T11:33:35.293Z,13.07
2022-08-04T11:34:44.368Z,12.79
2022-08-04T11:36:08.951Z,12.35
2022-08-04T11:37:21.018Z,13.05
2022-08-04T11:38:32.422Z,13.45
2022-08-04T11:39:38.317Z,13.41
2022-08-04T11:41:02.013Z,12.98
2022-08-04T11:42:21.076Z,14.09
2022-08-04T11:44:00.934Z,12.83
2022-08-04T11:44:57.857Z,13.97
2022-08-04T11:46:07.876Z,13.34
2022-08-04T11:47:21.350Z,14.73
2022-08-04T11:48:45.426Z,15.26
2022-08-04T11:49:57.379Z,13.42
2022-08-04T11:51:02.553Z,12.91
2022-08-04T11:52:12.779Z,13.68
2022-08-04T11:53:23.677Z,14.75
2022-08-04T11:54:25.384Z,13.44
2022-08-04T11:55:28.399Z,14.62
2022-08-04T11:56:37.025Z,15.75
2022-08-04T11:57:40.125Z,13.79
2022-08-04T11:58:42.271Z,14.75
2022-08-04T11:59:55.461Z,14.56
2022-08-04T12:01:06.479Z,15.54
2022-08-04T12:02:33.126Z,13.74
2022-08-04T12:03:59.713Z,15.01
2022-08-04T12:05:08.397Z,14.05
2022-08-04T12:06:20.123Z,14.96
2022-08-04T12:07:49.583Z,13.85
2022-08-04T12:09:04.325Z,15.54
2022-08-04T12:10:41.360Z,14.28
2022-08-04T12:12:15.106Z,14.59
2022-08-04T12:13:35.141Z,13.49
2022-08-04T12:14:54.855Z,13.49
2022-08-04T12:16:17.270Z,13.90
2022-08-04T12:17:52.622Z,14.23
2022-08-04T12:18:58.507Z,14.26
2022-08-04T12:20:32.215Z,13.42
2022-08-04T12:21:34.665Z,13.11
2022-08-04T12:22:43.985Z,14.59
2022-08-04T12:23:49.117Z,14.76
2022-08-04T12:25:05.664Z,15.38
2022-08-04T12:26:15.121Z,14.20
2022-08-04T12:27:33.667Z,14.09
2022-08-04T12:29:09.096Z,13.59
2022-08-04T12:30:57.968Z,14.08
2022-08-04T12:31:55.743Z,14.14
2022-08-04T12:34:03.083Z,14.38
2022-08-04T12:35:38.087Z,14.53
2022-08-04T12:37:22.335Z,15.00
2022-08-04T12:38:29.699Z,14.99
2022-08-04T12:39:32.140Z,14.94
2022-08-04T12:40:55.819Z,15.39
2022-08-04T12:42:07.380Z,15.82
2022-08-04T12:43:12.073Z,15.49
2022-08-04T12:44:37.323Z,15.29
2022-08-04T12:45:42.063Z,14.66
2022-08-04T12:46:51.085Z,14.94
2022-08-04T12:47:57.310Z,15.44
2022-08-04T12:49:04.025Z,15.49
2022-08-04T12:50:08.072Z,15.18
2022-08-04T12:52:06.419Z,16.75
2022-08-04T12:53:04.327Z,16.17
2022-08-04T12:54:08.557Z,18.23
2022-08-04T12:55:12.204Z,17.66
2022-08-04T12:56:17.334Z,17.75
2022-08-04T12:57:20.629Z,16.35
2022-08-04T12:58:43.282Z,15.62
2022-08-04T12:59:57.168Z,17.68
2022-08-04T13:01:04.016Z,16.33
2022-08-04T13:02:31.623Z,16.54
2022-08-04T13:03:53.772Z,16.55
2022-08-04T13:04:59.638Z,15.63
2022-08-04T13:06:06.576Z,15.92
2022-08-04T13:07:13.857Z,15.97
2022-08-04T13:08:20.743Z,16.68
2022-08-04T13:09:26.390Z,15.98
2022-08-04T13:10:29.991Z,16.44
2022-08-04T13:11:39.216Z,15.84
2022-08-04T13:12:44.964Z,16.17
2022-08-04T13:14:10.747Z,15.59
2022-08-04T13:15:18.636Z,18.08
2022-08-04T13:16:29.979Z,17.89
2022-08-04T13:17:46.073Z,16.93
2022-08-04T13:18:52.549Z,16.82
2022-08-04T13:19:56.341Z,17.04
2022-08-04T13:21:20.570Z,16.90
2022-08-04T13:22:30.064Z,16.46
2022-08-04T13:24:09.426Z,16.13
2022-08-04T13:25:17.880Z,15.83
2022-08-04T13:26:43.580Z,18.13
2022-08-04T13:27:46.818Z,17.58
2022-08-04T13:28:53.610Z,17.31
2022-08-04T13:29:59.231Z,15.73
2022-08-04T13:31:07.563Z,17.25
2022-08-04T13:32:11.300Z,17.17
2022-08-04T13:33:16.234Z,16.17
2022-08-04T13:34:19.513Z,16.85
2022-08-04T13:35:22.011Z,17.29
2022-08-04T13:36:27.218Z,17.18
2022-08-04T13:37:37.213Z,16.93
2022-08-04T13:38:45.391Z,16.47
2022-08-04T13:39:55.696Z,16.67
2022-08-04T13:41:02.348Z,16.66
2022-08-04T13:42:10.573Z,16.01
2022-08-04T13:44:15.434Z,16.55
2022-08-04T13:44:55.013Z,17.80
2022-08-04T13:46:03.611Z,16.65
2022-08-04T13:47:14.139Z,17.55
2022-08-04T13:48:32.796Z,16.80
2022-08-04T13:49:42.840Z,16.35
2022-08-04T13:51:05.195Z,16.97
2022-08-04T13:52:11.501Z,16.15
2022-08-04T13:53:17.579Z,15.86
2022-08-04T13:54:24.408Z,16.08
2022-08-04T13:55:32.866Z,15.34
2022-08-04T13:56:40.573Z,17.15
2022-08-04T13:57:47.301Z,16.42
2022-08-04T13:58:54.279Z,15.72
2022-08-04T14:00:01.758Z,15.92
2022-08-04T14:01:03.496Z,15.41
2022-08-04T14:02:10.684Z,15.78
2022-08-04T14:03:22.969Z,17.05
2022-08-04T14:04:31.609Z,17.64
2022-08-04T14:05:58.942Z,17.61
2022-08-04T14:07:17.974Z,15.14
2022-08-04T14:08:29.158Z,16.88
2022-08-04T14:09:35.270Z,15.96
2022-08-04T14:10:39.717Z,15.16
2022-08-04T14:12:09.138Z,15.07
2022-08-04T14:13:08.827Z,15.64
2022-08-04T14:14:16.158Z,14.29
2022-08-04T14:16:01.021Z,14.78
2022-08-04T14:17:00.566Z,14.58
2022-08-04T14:18:38.069Z,14.03
2022-08-04T14:19:51.625Z,13.91
2022-08-04T14:21:14.941Z,14.52
2022-08-04T14:22:31.455Z,14.10
2022-08-04T14:23:54.698Z,15.08
2022-08-04T14:24:56.351Z,15.95
2022-08-04T14:25:58.091Z,15.41
2022-08-04T14:27:00.859Z,15.59
2022-08-04T14:28:03.101Z,15.54
2022-08-04T14:29:26.174Z,15.67
2022-08-04T14:30:35.178Z,15.84
2022-08-04T14:31:37.583Z,16.23
2022-08-04T14:34:01.877Z,15.35
2022-08-04T14:34:30.111Z,15.51
2022-08-04T14:35:50.180Z,15.73
2022-08-04T14:37:17.958Z,15.61
2022-08-04T14:38:15.433Z,16.05
2022-08-04T14:39:17.182Z,15.82
2022-08-04T14:40:40.066Z,15.48
2022-08-04T14:41:50.071Z,15.34
2022-08-04T14:42:55.452Z,15.79
2022-08-04T14:44:03.644Z,15.59
2022-08-04T14:45:06.199Z,16.16
2022-08-04T14:46:07.948Z,16.97
2022-08-04T14:47:13.455Z,16.79
2022-08-04T14:48:18.881Z,17.11
2022-08-04T14:49:21.895Z,17.41
2022-08-04T14:50:35.834Z,16.86
2022-08-04T14:51:47.083Z,16.62
2022-08-04T14:52:49.012Z,16.59
2022-08-04T14:53:50.781Z,16.63
2022-08-04T14:54:53.669Z,17.53
2022-08-04T14:55:57.853Z,17.11
2022-08-04T14:57:05.630Z,17.92
2022-08-04T14:58:36.761Z,17.91
2022-08-04T15:00:00.535Z,18.61
2022-08-04T15:01:10.640Z,15.88
2022-08-04T15:02:15.239Z,16.46
2022-08-04T15:03:19.625Z,17.51
2022-08-04T15:04:23.855Z,16.74
2022-08-04T15:05:59.979Z,17.07
2022-08-04T15:06:48.160Z,17.31
2022-08-04T15:07:50.570Z,18.52
2022-08-04T15:08:54.138Z,17.28
2022-08-04T15:09:56.301Z,17.91
2022-08-04T15:10:59.078Z,19.28
2022-08-04T15:12:01.644Z,18.15
2022-08-04T15:13:03.728Z,17.74
2022-08-04T15:14:05.541Z,18.51
2022-08-04T15:15:34.070Z,17.77
2022-08-04T15:16:31.121Z,18.16
2022-08-04T15:17:33.104Z,18.62
2022-08-04T15:18:36.176Z,18.24
2022-08-04T15:19:38.936Z,17.94
2022-08-04T15:20:42.440Z,19.45
2022-08-04T15:21:44.234Z,17.98
2022-08-04T15:22:46.180Z,18.64
2022-08-04T15:23:48.880Z,19.25
2022-08-04T15:24:55.106Z,18.44
2022-08-04T15:26:02.031Z,19.04
2022-08-04T15:27:05.376Z,19.70
2022-08-04T15:28:20.423Z,19.05
2022-08-04T15:30:00.369Z,18.67
2022-08-04T15:32:01.757Z,19.27
2022-08-04T15:32:32.084Z,19.20
2022-08-04T15:33:34.679Z,18.43
2022-08-04T15:34:47.973Z,18.16
2022-08-04T15:35:55.102Z,19.58
2022-08-04T15:36:58.080Z,18.00
2022-08-04T15:38:06.102Z,18.02
2022-08-04T15:39:27.333Z,18.07
2022-08-04T15:40:41.143Z,17.80
2022-08-04T15:41:54.843Z,18.34
2022-08-04T15:43:11.412Z,18.21
2022-08-04T15:44:51.676Z,17.67
2022-08-04T15:46:41.223Z,18.89
2022-08-04T15:47:22.044Z,18.61
2022-08-04T15:48:26.696Z,18.46
2022-08-04T15:49:28.498Z,19.02
2022-08-04T15:50:30.998Z,19.01
2022-08-04T15:51:33.388Z,19.70
2022-08-04T15:53:00.532Z,18.92